ETHN 210020Z 35002KT 9999 BKN041 10/06 Q1024 BLU ETHN 202320Z VRB03KT 9999 BKN042 09/06 Q1024 BLU ETHN 202220Z 08004KT 9999 BKN043 09/06 Q1023 BLU ETHN 202120Z 06006KT 9999 BKN042 10/05 Q1023 BLU ETHN 202020Z 06006KT 9999 BKN041 11/06 Q1023 BLU ETHN 202000Z 08007KT 9999 BKN042 11/06 Q1023 BLU FCST CANCEL ETHN 201920Z 05006KT 9999 BKN045 11/07 Q1022 BLU BLU ETHN 201820Z 04006KT 9999 BKN045 12/06 Q1022 BLU BLU ETHN 201720Z 05005KT 9999 BKN045 12/08 Q1021 BLU BLU ETHN 201620Z 02005KT 9999 SCT032 BKN046 13/08 Q1021 BLU BLU ETHN 201520Z 03004KT 9999 SCT030 BKN050 14/08 Q1020 BLU BLU TEMPO WHT ETHN 201420Z 03004KT 9999 BKN029 BKN048 14/08 Q1020 BLU BLU TEMPO WHT ETHN 201320Z 05005KT 9999 BKN025 BKN048 14/08 Q1020 BLU BLU TEMPO WHT ETHN 201220Z 08006KT 9999 FEW020 BKN027 BKN048 14/09 Q1020 BLU BLU TEMPO WHT ETHN 201120Z 08007KT 9999 FEW010 SCT028 BKN048 14/09 Q1019 BLU BLU TEMPO WHT ETHN 201020Z 08006KT 9999 FEW009 BKN026 OVC045 12/09 Q1019 BLU BLU TEMPO WHT ETHN 200940Z 09006KT 9999 FEW009 BKN025 OVC045 11/08 Q1019 BLU BLU TEMPO WHT ETHN 200920Z 08006KT 9999 FEW009 BKN022 OVC040 11/09 Q1019 WHT BLU TEMPO WHT ETHN 200820Z 07006KT 9999 FEW010 BKN016 OVC025 11/09 Q1019 WHT BLU TEMPO WHT ETHN 200808Z 06006KT 9999 FEW010 BKN015 OVC025 10/09 Q1019 WHT BLU TEMPO WHT ETHN 200720Z 07006KT 9999 SCT017 BKN027 10/09 Q1018 BLU BLU TEMPO WHT ETHN 200620Z 06005KT 9999 SCT020 BKN028 09/08 Q1018 BLU BLU TEMPO WHT ETHN 200520Z 03004KT 9999 SCT030 OVC040 09/08 Q1018 BLU ETHN 200420Z 06003KT 9999 FEW030 OVC038 09/08 Q1017 BLU ETHN 200320Z 03004KT 9999 OVC038 09/08 Q1017 BLU ETHN 200220Z 02002KT 9999 OVC038 10/08 Q1017 BLU ETHN 200120Z 06001KT 9999 OVC036 10/09 Q1017 BLU ETHN 200020Z 05004KT 9999 OVC036 10/09 Q1017 BLU ETHN 192320Z 03003KT 9999 BKN034 10/09 Q1017 BLU ETHN 192220Z 05004KT 9999 BKN035 10/09 Q1016 BLU ETHN 192120Z 04006KT 9999 SCT034 09/08 Q1016 BLU+ ETHN 192020Z 06005KT 9999 FEW036 09/08 Q1016 BLU+ ETHN 191920Z 04006KT 9999 FEW020 10/09 Q1016 BLU+ ETHN 191820Z 02006KT 9999 FEW017 12/10 Q1015 BLU+ ETHN 191720Z 02007KT 9999 FEW020 13/10 Q1015 BLU+ ETHN 191620Z 03007KT 9999 FEW020 15/11 Q1014 BLU+ ETHN 191520Z 02006KT 9999 FEW020 BKN036 15/11 Q1014 BLU ETHN 191420Z 04007KT 9999 FEW016 BKN032 15/11 Q1014 BLU

METAR Messwerte

Zurück zur Übersicht

Ort
m ü. NN
Zeit Temperatur Taupunkt Rel.
Luftfeuchte
Luftdruck:
Altimeter
NN
Station
Wind in Beaufort
(Knoten)
Sichtweite
(Meter)
Wolken
(Meter über Grund)
Wettererscheinung
Niederstetten
473
Di 21.09. 02:2010676 %1024
1025
968
N 1 (2)>= 10000Stark bewölkt (1200) 
Niederstetten
473
Di 21.09. 01:209681 %1024
1025
968
Uml 2 (3)>= 10000Stark bewölkt (1300) 
Niederstetten
473
Di 21.09. 00:209681 %1023
1024
967
O 2 (4)>= 10000Stark bewölkt (1300) 
Niederstetten
473
Mo 20.09. 23:2010571 %1023
1024
967
ONO 2 (6)>= 10000Stark bewölkt (1300) 
Niederstetten
473
Mo 20.09. 22:2011671 %1023
1024
967
ONO 2 (6)>= 10000Stark bewölkt (1200) 
Niederstetten
473
Mo 20.09. 22:0011671 %1023
1024
967
O 3 (7)>= 10000Stark bewölkt (1300) 
Niederstetten
473
Mo 20.09. 21:2011776 %1022
1023
966
NO 2 (6)>= 10000Stark bewölkt (1400) 
Niederstetten
473
Mo 20.09. 20:2012667 %1022
1023
966
NO 2 (6)>= 10000Stark bewölkt (1400) 
Niederstetten
473
Mo 20.09. 19:2012876 %1021
1022
965
NO 2 (5)>= 10000Stark bewölkt (1400) 
Niederstetten
473
Mo 20.09. 18:2013872 %1021
1021
965
NNO 2 (5)>= 10000Stark bewölkt (1400)
Wolkig (980)
 
Niederstetten
473
Mo 20.09. 17:2014867 %1020
1020
964
NNO 2 (4)>= 10000Stark bewölkt (1500)
Wolkig (910)
 
Niederstetten
473
Mo 20.09. 16:2014867 %1020
1020
964
NNO 2 (4)>= 10000Stark bewölkt (1500)
Stark bewölkt (880)
 
Niederstetten
473
Mo 20.09. 15:2014867 %1020
1020
964
NO 2 (5)>= 10000Stark bewölkt (1500)
Stark bewölkt (760)
 
Niederstetten
473
Mo 20.09. 14:2014972 %1020
1020
964
O 2 (6)>= 10000Stark bewölkt (1500)
Stark bewölkt (820)
Leicht bewölkt (610)
 
Niederstetten
473
Mo 20.09. 13:2014972 %1019
1019
963
O 3 (7)>= 10000Stark bewölkt (1500)
Wolkig (850)
Leicht bewölkt (300)
 
Niederstetten
473
Mo 20.09. 12:2012982 %1019
1020
963
O 2 (6)>= 10000Bedeckt (1400)
Stark bewölkt (790)
Leicht bewölkt (270)
 
Niederstetten
473
Mo 20.09. 11:4011882 %1019
1020
963
O 2 (6)>= 10000Bedeckt (1400)
Stark bewölkt (760)
Leicht bewölkt (270)
 
Niederstetten
473
Mo 20.09. 11:2011987 %1019
1020
963
O 2 (6)>= 10000Bedeckt (1200)
Stark bewölkt (670)
Leicht bewölkt (270)
 
Niederstetten
473
Mo 20.09. 10:2011987 %1019
1020
963
ONO 2 (6)>= 10000Bedeckt (760)
Stark bewölkt (490)
Leicht bewölkt (300)
 
Niederstetten
473
Mo 20.09. 10:0810993 %1019
1020
963
ONO 2 (6)>= 10000Bedeckt (760)
Stark bewölkt (460)
Leicht bewölkt (300)
 
Niederstetten
473
Mo 20.09. 09:2010993 %1018
1019
962
ONO 2 (6)>= 10000Stark bewölkt (820)
Wolkig (520)
 
Niederstetten
473
Mo 20.09. 08:209893 %1018
1019
962
ONO 2 (5)>= 10000Stark bewölkt (850)
Wolkig (610)
 
Niederstetten
473
Mo 20.09. 07:209893 %1018
1019
962
NNO 2 (4)>= 10000Bedeckt (1200)
Wolkig (910)
 
Niederstetten
473
Mo 20.09. 06:209893 %1017
1018
961
ONO 2 (3)>= 10000Bedeckt (1200)
Leicht bewölkt (910)
 
Niederstetten
473
Mo 20.09. 05:209893 %1017
1018
961
NNO 2 (4)>= 10000Bedeckt (1200) 
Niederstetten
473
Mo 20.09. 04:2010887 %1017
1018
961
NNO 1 (2)>= 10000Bedeckt (1200) 
Niederstetten
473
Mo 20.09. 03:2010993 %1017
1018
961
ONO 1 (1)>= 10000Bedeckt (1100) 
Niederstetten
473
Mo 20.09. 02:2010993 %1017
1018
961
NO 2 (4)>= 10000Bedeckt (1100) 
Niederstetten
473
Mo 20.09. 01:2010993 %1017
1018
961
NNO 2 (3)>= 10000Stark bewölkt (1000) 
Niederstetten
473
Mo 20.09. 00:2010993 %1016
1017
960
NO 2 (4)>= 10000Stark bewölkt (1100) 
Niederstetten
473
So 19.09. 23:209893 %1016
1017
960
NO 2 (6)>= 10000Wolkig (1000) 
Niederstetten
473
So 19.09. 22:209893 %1016
1017
960
ONO 2 (5)>= 10000Leicht bewölkt (1100) 
Niederstetten
473
So 19.09. 21:2010993 %1016
1017
960
NO 2 (6)>= 10000Leicht bewölkt (610) 
Niederstetten
473
So 19.09. 20:20121088 %1015
1016
959
NNO 2 (6)>= 10000Leicht bewölkt (520) 
Niederstetten
473
So 19.09. 19:20131082 %1015
1015
959
NNO 3 (7)>= 10000Leicht bewölkt (610) 
Niederstetten
473
So 19.09. 18:20151177 %1014
1014
958
NNO 3 (7)>= 10000Leicht bewölkt (610) 
Niederstetten
473
So 19.09. 17:20151177 %1014
1014
958
NNO 2 (6)>= 10000Stark bewölkt (1100)
Leicht bewölkt (610)
 
Niederstetten
473
So 19.09. 16:20151177 %1014
1014
958
NO 3 (7)>= 10000Stark bewölkt (980)
Leicht bewölkt (490)
 

Altimeter: Einstellung am Altimeter (Höhenmesser), die Höhe 0 muss auf diesen Luftdruckwert zeigen, damit das Gerät die Stationshöhe richtig anzeigt.

NN: Luftdruck reduziert auf "Normal Null", auf Meereshöhe, dieser von der Temperatur abhängige Wert wird bisweilen unkorrekt einfach als "Luftdruck" bezeichnet. Eigentlich nur eine fiktive Größe, die es erlaubt, Stationen auf unterschiedlichen Höhen miteinander zu vergleichen.

Station: Realer Luftdruck an der Station.